createdAt,value
2018-07-07T00:01:36.023Z,69.71
2018-07-07T00:04:06.738Z,68.47
2018-07-07T00:06:37.817Z,68.83
2018-07-07T00:09:08.613Z,68.38
2018-07-07T00:11:39.418Z,68.26
2018-07-07T00:14:10.077Z,67.15
2018-07-07T00:16:40.864Z,67.15
2018-07-07T00:19:11.577Z,66.75
2018-07-07T00:21:42.455Z,67.11
2018-07-07T00:24:13.130Z,67.22
2018-07-07T00:26:44.006Z,67.02
2018-07-07T00:29:14.661Z,67.38
2018-07-07T00:31:45.465Z,66.99
2018-07-07T00:34:16.118Z,66.57
2018-07-07T00:36:46.886Z,66.68
2018-07-07T00:39:17.037Z,66.55
2018-07-07T00:41:47.980Z,65.91
2018-07-07T00:44:18.697Z,65.67
2018-07-07T00:46:49.673Z,66.16
2018-07-07T00:49:20.318Z,66.28
2018-07-07T00:51:51.053Z,67.03
2018-07-07T00:54:21.778Z,66.74
2018-07-07T00:56:52.605Z,65.91
2018-07-07T00:59:23.325Z,65.93
2018-07-07T01:01:54.276Z,66.80
2018-07-07T01:04:24.721Z,66.81
2018-07-07T01:06:55.756Z,66.75
2018-07-07T01:09:26.435Z,66.20
2018-07-07T01:11:57.218Z,66.57
2018-07-07T01:14:27.857Z,66.49
2018-07-07T01:16:58.525Z,66.28
2018-07-07T01:19:28.670Z,66.89
2018-07-07T01:21:59.351Z,66.63
2018-07-07T01:24:29.894Z,66.96
2018-07-07T01:27:00.622Z,66.81
2018-07-07T01:29:31.256Z,66.98
2018-07-07T01:32:02.254Z,66.58
2018-07-07T01:34:32.951Z,67.33
2018-07-07T01:37:03.874Z,66.68
2018-07-07T01:39:34.152Z,66.46
2018-07-07T01:42:05.215Z,66.14
2018-07-07T01:44:35.965Z,65.71
2018-07-07T01:47:06.601Z,65.68
2018-07-07T01:49:36.614Z,65.89
2018-07-07T01:52:07.686Z,65.78
2018-07-07T01:54:38.355Z,66.10
2018-07-07T01:57:09.049Z,66.10
2018-07-07T01:59:39.773Z,66.85
2018-07-07T02:02:10.450Z,66.07
2018-07-07T02:04:41.090Z,67.18
2018-07-07T02:07:11.794Z,66.80
2018-07-07T02:09:42.510Z,66.47
2018-07-07T02:12:13.225Z,66.31
2018-07-07T02:14:43.924Z,66.43
2018-07-07T02:17:15.566Z,66.39
2018-07-07T02:19:46.038Z,66.18
2018-07-07T02:22:24.962Z,65.89
2018-07-07T02:24:55.557Z,67.49
2018-07-07T02:27:26.265Z,67.36
2018-07-07T02:29:56.893Z,66.87
2018-07-07T02:32:27.608Z,66.29
2018-07-07T02:34:58.302Z,66.03
2018-07-07T02:37:29.210Z,66.29
2018-07-07T02:39:59.901Z,66.36
2018-07-07T02:42:30.537Z,67.09
2018-07-07T02:45:00.624Z,67.61
2018-07-07T02:47:31.377Z,67.82
2018-07-07T02:50:02.127Z,67.27
2018-07-07T02:52:32.902Z,68.21
2018-07-07T02:55:03.570Z,68.52
2018-07-07T02:57:34.566Z,68.84
2018-07-07T03:00:05.221Z,67.73
2018-07-07T03:02:35.897Z,66.72
2018-07-07T03:05:06.722Z,68.12
2018-07-07T03:07:37.347Z,68.68
2018-07-07T03:10:08.314Z,67.98
2018-07-07T03:12:39.173Z,68.21
2018-07-07T03:15:09.906Z,68.07
2018-07-07T03:17:40.603Z,68.95
2018-07-07T03:20:11.334Z,69.91
2018-07-07T03:22:42.287Z,69.08
2018-07-07T03:25:13.053Z,69.77
2018-07-07T03:27:44.239Z,68.47
2018-07-07T03:30:14.825Z,67.14
2018-07-07T03:32:45.525Z,65.47
2018-07-07T03:35:16.052Z,65.83
2018-07-07T03:37:46.940Z,65.02
2018-07-07T03:40:17.133Z,64.53
2018-07-07T03:42:48.037Z,64.12
2018-07-07T03:45:18.742Z,62.65
2018-07-07T03:47:49.485Z,63.47
2018-07-07T03:50:20.045Z,63.21
2018-07-07T03:52:50.825Z,63.64
2018-07-07T03:55:21.570Z,64.36
2018-07-07T03:57:52.453Z,64.67
2018-07-07T04:00:23.118Z,64.92
2018-07-07T04:02:54.058Z,66.07
2018-07-07T04:05:24.156Z,66.16
2018-07-07T04:07:54.750Z,64.80
2018-07-07T04:10:25.553Z,65.00
2018-07-07T04:12:55.980Z,65.56
2018-07-07T04:15:26.679Z,63.24
2018-07-07T04:17:57.305Z,63.93
2018-07-07T04:20:27.983Z,63.64
2018-07-07T04:22:58.730Z,63.61
2018-07-07T04:25:29.481Z,61.71
2018-07-07T04:28:00.333Z,61.45
2018-07-07T04:30:30.917Z,62.27
2018-07-07T04:33:01.626Z,61.85
2018-07-07T04:35:31.628Z,60.53
2018-07-07T04:38:02.697Z,59.32
2018-07-07T04:40:32.789Z,57.68
2018-07-07T04:43:03.690Z,59.11
2018-07-07T04:45:34.459Z,59.33
2018-07-07T04:48:05.033Z,60.36
2018-07-07T04:50:35.546Z,56.71
2018-07-07T04:53:06.008Z,56.40
2018-07-07T04:55:36.577Z,56.19
2018-07-07T04:58:13.880Z,57.16
2018-07-07T05:00:44.558Z,56.37
2018-07-07T05:03:15.576Z,57.95
2018-07-07T05:05:45.773Z,58.17
2018-07-07T05:08:16.509Z,59.54
2018-07-07T05:10:47.204Z,60.92
2018-07-07T05:13:18.181Z,59.26
2018-07-07T05:15:48.880Z,60.27
2018-07-07T05:18:19.613Z,61.30
2018-07-07T05:20:50.297Z,62.35
2018-07-07T05:23:21.258Z,61.91
2018-07-07T05:25:51.810Z,61.58
2018-07-07T05:28:22.876Z,60.00
2018-07-07T05:30:53.645Z,56.14
2018-07-07T05:33:24.684Z,54.24
2018-07-07T05:35:55.320Z,56.69
2018-07-07T05:38:25.969Z,54.77
2018-07-07T05:40:56.698Z,55.36
2018-07-07T05:43:27.490Z,55.31
2018-07-07T05:45:57.492Z,57.70
2018-07-07T05:48:28.361Z,56.95
2018-07-07T05:50:58.554Z,58.36
2018-07-07T05:53:29.517Z,57.43
2018-07-07T05:55:59.664Z,57.57
2018-07-07T05:58:30.338Z,55.62
2018-07-07T06:01:00.909Z,55.12
2018-07-07T06:03:31.702Z,54.59
2018-07-07T06:06:02.233Z,54.56
2018-07-07T06:08:32.961Z,54.73
2018-07-07T06:11:03.933Z,52.29
2018-07-07T06:13:34.007Z,52.25
2018-07-07T06:16:04.741Z,52.85
2018-07-07T06:18:35.450Z,51.71
2018-07-07T06:21:06.270Z,52.06
2018-07-07T06:23:36.881Z,52.73
2018-07-07T06:26:07.089Z,52.42
2018-07-07T06:28:37.934Z,52.81
2018-07-07T06:31:08.865Z,50.74
2018-07-07T06:33:40.077Z,47.99
2018-07-07T06:36:10.713Z,50.49
2018-07-07T06:38:41.403Z,48.69
2018-07-07T06:41:12.182Z,50.13
2018-07-07T06:43:43.166Z,50.45
2018-07-07T06:46:14.493Z,49.98
2018-07-07T06:48:44.862Z,49.86
2018-07-07T06:51:15.465Z,48.28
2018-07-07T06:53:46.407Z,46.04
2018-07-07T06:56:16.465Z,46.58
2018-07-07T06:58:46.965Z,46.40
2018-07-07T07:01:17.642Z,45.94
2018-07-07T07:03:48.259Z,47.05
2018-07-07T07:06:18.868Z,48.19
2018-07-07T07:08:49.554Z,46.91
2018-07-07T07:11:20.474Z,47.20
2018-07-07T07:13:50.602Z,49.41
2018-07-07T07:16:21.741Z,46.27
2018-07-07T07:18:52.010Z,44.18
2018-07-07T07:21:22.697Z,45.61
2018-07-07T07:23:53.543Z,46.13
2018-07-07T07:26:24.590Z,47.72
2018-07-07T07:28:55.934Z,47.82
2018-07-07T07:31:26.674Z,47.86
2018-07-07T07:33:57.181Z,48.42
2018-07-07T07:36:47.477Z,47.62
2018-07-07T07:39:17.801Z,50.24
2018-07-07T07:41:48.079Z,48.91
2018-07-07T07:44:18.619Z,48.46
2018-07-07T07:46:49.350Z,50.21
2018-07-07T07:49:19.990Z,48.72
2018-07-07T07:51:50.804Z,46.72
2018-07-07T07:54:21.444Z,46.64
2018-07-07T07:56:52.133Z,47.76
2018-07-07T07:59:22.870Z,46.62
2018-07-07T08:01:53.634Z,46.56
2018-07-07T08:04:24.122Z,46.56
2018-07-07T08:06:54.364Z,46.72
2018-07-07T08:09:25.010Z,45.62
2018-07-07T08:11:55.705Z,45.50
2018-07-07T08:14:26.590Z,47.05
2018-07-07T08:16:57.361Z,47.86
2018-07-07T08:19:28.579Z,47.35
2018-07-07T08:21:59.617Z,49.06
2018-07-07T08:24:30.298Z,49.83
2018-07-07T08:27:01.310Z,52.24
2018-07-07T08:29:32.074Z,50.48
2018-07-07T08:32:02.893Z,45.62
2018-07-07T08:34:33.037Z,46.60
2018-07-07T08:37:03.309Z,43.16
2018-07-07T08:39:34.135Z,45.75
2018-07-07T08:42:04.993Z,46.44
2018-07-07T08:44:35.220Z,46.04
2018-07-07T08:47:05.937Z,45.95
2018-07-07T08:49:36.477Z,43.89
2018-07-07T08:52:07.254Z,45.62
2018-07-07T08:54:37.897Z,42.20
2018-07-07T08:57:08.601Z,43.21
2018-07-07T08:59:39.285Z,43.19
2018-07-07T09:02:10.168Z,41.56
2018-07-07T09:04:40.417Z,43.20
2018-07-07T09:07:11.162Z,41.07
2018-07-07T09:09:41.829Z,45.32
2018-07-07T09:12:12.642Z,45.90
2018-07-07T09:14:43.486Z,43.91
2018-07-07T09:17:14.082Z,42.61
2018-07-07T09:19:44.753Z,40.08
2018-07-07T09:22:15.620Z,43.35
2018-07-07T09:24:45.884Z,41.46
2018-07-07T09:27:16.698Z,42.50
2018-07-07T09:29:47.313Z,42.30
2018-07-07T09:32:18.373Z,41.27
2018-07-07T09:34:49.144Z,40.34
2018-07-07T09:37:20.038Z,41.63
2018-07-07T09:39:50.816Z,41.10
2018-07-07T09:42:22.001Z,39.66
2018-07-07T09:44:52.019Z,37.20
2018-07-07T09:47:22.821Z,39.43
2018-07-07T09:49:53.547Z,41.68
2018-07-07T09:52:24.056Z,44.72
2018-07-07T09:54:54.626Z,42.36
2018-07-07T09:57:25.481Z,41.81
2018-07-07T09:59:56.202Z,39.90
2018-07-07T10:02:27.125Z,41.66
2018-07-07T10:04:57.753Z,40.99
2018-07-07T10:07:28.813Z,40.56
2018-07-07T10:09:59.509Z,41.52
2018-07-07T10:12:30.149Z,41.84
2018-07-07T10:15:00.885Z,44.23
2018-07-07T10:17:31.677Z,42.36
2018-07-07T10:20:02.377Z,42.45
2018-07-07T10:22:33.327Z,43.85
2018-07-07T10:25:04.061Z,46.17
2018-07-07T10:27:34.108Z,44.63
2018-07-07T10:30:04.738Z,44.04
2018-07-07T10:32:35.513Z,44.31
2018-07-07T10:35:06.132Z,45.11
2018-07-07T10:37:37.022Z,40.88
2018-07-07T10:40:07.627Z,39.79
2018-07-07T10:42:38.504Z,39.30
2018-07-07T10:45:09.173Z,40.64
2018-07-07T10:47:39.866Z,40.14
2018-07-07T10:50:10.537Z,37.97
2018-07-07T10:52:41.382Z,40.81
2018-07-07T10:55:11.929Z,40.00
2018-07-07T10:57:42.895Z,41.81
2018-07-07T11:00:13.611Z,43.01
2018-07-07T11:02:44.197Z,43.00
2018-07-07T11:05:14.830Z,43.20
2018-07-07T11:07:45.501Z,42.22
2018-07-07T11:10:15.485Z,42.76
2018-07-07T11:12:46.003Z,42.86
2018-07-07T11:15:16.614Z,43.30
2018-07-07T11:17:47.526Z,44.25
2018-07-07T11:20:18.212Z,41.90
2018-07-07T11:22:49.040Z,42.57
2018-07-07T11:25:19.542Z,42.06
2018-07-07T11:27:50.249Z,41.54
2018-07-07T11:30:20.393Z,42.33
2018-07-07T11:32:51.223Z,43.34
2018-07-07T11:35:21.982Z,43.49
2018-07-07T11:37:53.030Z,40.69
2018-07-07T11:40:23.898Z,41.41
2018-07-07T11:42:54.705Z,40.09
2018-07-07T11:45:25.377Z,39.86
2018-07-07T11:47:56.149Z,38.85
2018-07-07T11:50:26.256Z,40.11
2018-07-07T11:52:56.398Z,40.64
2018-07-07T11:55:26.585Z,42.17
2018-07-07T11:57:57.122Z,38.70
2018-07-07T12:00:27.803Z,41.64
2018-07-07T12:02:58.825Z,44.12
2018-07-07T12:05:29.422Z,44.46
2018-07-07T12:08:13.672Z,45.28
2018-07-07T12:10:30.954Z,43.45
2018-07-07T12:13:01.801Z,43.68
2018-07-07T12:15:32.431Z,41.78
2018-07-07T12:18:03.273Z,42.21
2018-07-07T12:20:33.946Z,42.08
2018-07-07T12:23:04.878Z,42.84
2018-07-07T12:25:35.549Z,42.61
2018-07-07T12:28:06.205Z,44.13
2018-07-07T12:30:36.954Z,46.40
2018-07-07T12:33:07.666Z,49.42
2018-07-07T12:35:38.358Z,50.43
2018-07-07T12:38:09.139Z,53.56
2018-07-07T12:40:39.852Z,55.87
2018-07-07T12:43:10.633Z,53.47
2018-07-07T12:45:41.416Z,54.31
2018-07-07T12:48:12.264Z,54.48
2018-07-07T12:50:42.948Z,54.07
2018-07-07T12:53:13.729Z,53.69
2018-07-07T12:55:44.330Z,54.09
2018-07-07T12:58:15.018Z,55.33
2018-07-07T13:00:45.721Z,55.00
2018-07-07T13:03:16.417Z,55.13
2018-07-07T13:05:46.461Z,54.66
2018-07-07T13:08:17.050Z,59.30
2018-07-07T13:10:47.722Z,67.19
2018-07-07T13:13:18.497Z,67.26
2018-07-07T13:15:49.046Z,65.93
2018-07-07T13:18:19.833Z,67.08
2018-07-07T13:20:50.598Z,66.42
2018-07-07T13:23:21.269Z,67.35
2018-07-07T13:25:51.517Z,68.99
2018-07-07T13:28:22.372Z,67.65
2018-07-07T13:30:53.110Z,68.17
2018-07-07T13:33:24.037Z,67.35
2018-07-07T13:35:55.309Z,67.97
2018-07-07T13:38:26.242Z,67.42
2018-07-07T13:40:56.876Z,69.04
2018-07-07T13:43:27.695Z,69.54
2018-07-07T13:45:58.311Z,71.58
2018-07-07T13:48:29.097Z,70.57
2018-07-07T13:50:59.855Z,71.44
2018-07-07T13:53:30.589Z,71.41
2018-07-07T13:56:01.490Z,71.74
2018-07-07T13:58:32.317Z,71.43
2018-07-07T14:01:02.862Z,71.61
2018-07-07T14:03:34.900Z,72.01
2018-07-07T14:06:05.618Z,72.02
2018-07-07T14:08:36.719Z,72.04
2018-07-07T14:11:07.965Z,71.00
2018-07-07T14:13:38.321Z,70.85
2018-07-07T14:16:09.126Z,70.52
2018-07-07T14:18:39.911Z,70.73
2018-07-07T14:21:10.617Z,70.40
2018-07-07T14:23:41.653Z,70.71
2018-07-07T14:26:12.241Z,69.47
2018-07-07T14:28:42.989Z,68.77
2018-07-07T14:31:12.982Z,69.02
2018-07-07T14:33:43.788Z,67.14
2018-07-07T14:36:14.433Z,68.41
2018-07-07T14:38:45.121Z,70.10
2018-07-07T14:41:21.200Z,69.21
2018-07-07T14:43:58.769Z,69.28
2018-07-07T14:46:29.417Z,70.11
2018-07-07T14:49:00.324Z,68.82
2018-07-07T14:51:30.578Z,69.26
2018-07-07T14:54:01.578Z,67.25
2018-07-07T14:56:32.279Z,68.35
2018-07-07T14:59:03.258Z,68.00
2018-07-07T15:01:33.951Z,68.29
2018-07-07T15:04:04.809Z,69.09
2018-07-07T15:06:35.569Z,68.30
2018-07-07T15:09:06.565Z,67.24
2018-07-07T15:11:37.192Z,67.63
2018-07-07T15:14:08.270Z,67.81
2018-07-07T15:16:38.940Z,67.43
2018-07-07T15:19:09.573Z,67.58
2018-07-07T15:21:40.234Z,67.07
2018-07-07T15:24:11.067Z,67.38
2018-07-07T15:26:41.695Z,67.10
2018-07-07T15:29:12.473Z,67.93
2018-07-07T15:31:42.754Z,67.90
2018-07-07T15:34:13.905Z,68.51
2018-07-07T15:36:44.533Z,68.14
2018-07-07T15:39:15.306Z,67.28
2018-07-07T15:41:46.334Z,67.30
2018-07-07T15:44:16.722Z,67.48
2018-07-07T15:46:47.414Z,66.81
2018-07-07T15:49:18.253Z,66.70
2018-07-07T15:51:48.959Z,66.06
2018-07-07T15:54:20.091Z,66.92
2018-07-07T15:56:50.794Z,66.67
2018-07-07T15:59:21.650Z,66.76
2018-07-07T16:01:52.210Z,66.32
2018-07-07T16:04:22.597Z,66.45
2018-07-07T16:06:53.249Z,66.68
2018-07-07T16:09:24.193Z,66.75
2018-07-07T16:11:54.899Z,66.29
2018-07-07T16:14:25.741Z,66.25
2018-07-07T16:16:56.478Z,66.12
2018-07-07T16:19:27.289Z,65.65
2018-07-07T16:21:58.014Z,65.47
2018-07-07T16:24:28.782Z,65.96
2018-07-07T16:26:59.558Z,66.07
2018-07-07T16:29:30.450Z,66.98
2018-07-07T16:32:01.158Z,65.65
2018-07-07T16:34:32.192Z,66.07
2018-07-07T16:37:02.891Z,66.68
2018-07-07T16:39:33.317Z,66.49
2018-07-07T16:42:03.938Z,65.92
2018-07-07T16:44:34.921Z,66.45
2018-07-07T16:47:05.484Z,66.31
2018-07-07T16:49:36.317Z,67.09
2018-07-07T16:52:07.253Z,67.44
2018-07-07T16:54:38.754Z,67.74
2018-07-07T16:57:09.844Z,66.44
2018-07-07T16:59:41.017Z,66.14
2018-07-07T17:02:11.801Z,66.92
2018-07-07T17:04:42.741Z,66.14
2018-07-07T17:07:13.530Z,65.91
2018-07-07T17:09:43.960Z,66.31
2018-07-07T17:12:14.841Z,65.80
2018-07-07T17:14:45.649Z,65.27
2018-07-07T17:17:16.562Z,65.65
2018-07-07T17:19:47.123Z,65.25
2018-07-07T17:22:17.726Z,65.12
2018-07-07T17:24:48.373Z,65.42
2018-07-07T17:27:18.540Z,64.48
2018-07-07T17:29:49.510Z,64.90
2018-07-07T17:32:19.715Z,64.53
2018-07-07T17:34:50.476Z,64.55
2018-07-07T17:37:21.514Z,64.75
2018-07-07T17:39:51.873Z,64.94
2018-07-07T17:42:22.697Z,65.53
2018-07-07T17:44:54.026Z,66.07
2018-07-07T17:47:24.269Z,66.81
2018-07-07T17:49:54.907Z,66.41
2018-07-07T17:52:25.470Z,66.87
2018-07-07T17:54:56.361Z,66.78
2018-07-07T17:57:27.186Z,67.51
2018-07-07T17:59:58.277Z,66.63
2018-07-07T18:02:28.925Z,66.39
2018-07-07T18:04:59.913Z,66.87
2018-07-07T18:07:30.204Z,66.51
2018-07-07T18:10:01.046Z,65.77
2018-07-07T18:12:31.357Z,65.88
2018-07-07T18:15:02.270Z,66.31
2018-07-07T18:17:32.974Z,67.18
2018-07-07T18:20:04.030Z,66.67
2018-07-07T18:22:34.782Z,66.35
2018-07-07T18:25:05.550Z,67.04
2018-07-07T18:27:35.713Z,66.82
2018-07-07T18:30:06.669Z,67.24
2018-07-07T18:32:37.358Z,66.71
2018-07-07T18:35:08.225Z,66.39
2018-07-07T18:37:38.998Z,66.18
2018-07-07T18:40:09.329Z,66.05
2018-07-07T18:42:40.030Z,66.34
2018-07-07T18:45:10.763Z,66.94
2018-07-07T18:47:41.317Z,67.02
2018-07-07T18:50:12.036Z,66.90
2018-07-07T18:52:42.809Z,68.06
2018-07-07T18:55:13.065Z,68.54
2018-07-07T18:57:43.710Z,69.84
2018-07-07T19:00:14.350Z,69.56
2018-07-07T19:02:44.898Z,69.17
2018-07-07T19:05:15.657Z,69.04
2018-07-07T19:07:46.773Z,69.49
2018-07-07T19:10:17.438Z,68.91
2018-07-07T19:12:48.153Z,68.76
2018-07-07T19:15:22.076Z,68.77
2018-07-07T19:17:53.313Z,68.79
2018-07-07T19:20:28.390Z,68.80
2018-07-07T19:23:03.607Z,69.95
2018-07-07T19:28:20.889Z,69.81
2018-07-07T19:30:51.526Z,69.66
2018-07-07T19:33:27.129Z,69.19
2018-07-07T19:36:02.626Z,68.92
2018-07-07T19:38:33.517Z,68.81
2018-07-07T19:41:04.281Z,69.40
2018-07-07T19:43:35.190Z,69.33
2018-07-07T19:46:05.950Z,68.85
2018-07-07T19:48:36.541Z,68.99
2018-07-07T19:51:07.238Z,68.45
2018-07-07T19:53:38.033Z,67.74
2018-07-07T19:56:08.685Z,67.26
2018-07-07T19:58:39.673Z,66.69
2018-07-07T20:01:10.451Z,66.84
2018-07-07T20:03:41.429Z,66.34
2018-07-07T20:06:12.222Z,67.15
2018-07-07T20:08:43.070Z,66.81
2018-07-07T20:11:13.730Z,66.79
2018-07-07T20:13:44.475Z,67.35
2018-07-07T20:16:17.460Z,66.22
2018-07-07T20:19:13.239Z,66.22
2018-07-07T20:21:51.429Z,67.24
2018-07-07T20:24:23.805Z,67.64
2018-07-07T20:26:59.581Z,67.35
2018-07-07T20:29:30.561Z,67.43
2018-07-07T20:32:01.028Z,67.72
2018-07-07T20:34:32.379Z,67.22
2018-07-07T20:37:03.110Z,67.16
2018-07-07T20:39:33.813Z,67.75
2018-07-07T20:42:05.738Z,67.50
2018-07-07T20:44:36.546Z,67.18
2018-07-07T20:47:07.505Z,67.69
2018-07-07T20:49:38.369Z,67.28
2018-07-07T20:52:08.621Z,68.37
2018-07-07T20:54:39.325Z,68.07
2018-07-07T20:57:10.008Z,68.35
2018-07-07T20:59:40.911Z,68.01
2018-07-07T21:02:11.510Z,67.85
2018-07-07T21:04:42.184Z,67.49
2018-07-07T21:07:12.853Z,67.69
2018-07-07T21:09:43.506Z,66.87
2018-07-07T21:12:13.709Z,67.60
2018-07-07T21:14:44.911Z,66.94
2018-07-07T21:17:15.635Z,67.69
2018-07-07T21:19:46.453Z,68.12
2018-07-07T21:22:17.138Z,67.75
2018-07-07T21:24:47.876Z,68.14
2018-07-07T21:27:18.369Z,67.15
2018-07-07T21:29:49.097Z,66.88
2018-07-07T21:32:19.821Z,67.34
2018-07-07T21:34:50.654Z,66.49
2018-07-07T21:37:20.993Z,67.17
2018-07-07T21:39:51.777Z,67.08
2018-07-07T21:42:22.329Z,67.19
2018-07-07T21:44:53.112Z,66.57
2018-07-07T21:47:23.581Z,65.93
2018-07-07T21:49:54.393Z,66.22
2018-07-07T21:52:24.861Z,66.20
2018-07-07T21:54:55.718Z,66.20
2018-07-07T21:57:31.314Z,65.98
2018-07-07T22:00:02.169Z,66.48
2018-07-07T22:02:37.360Z,67.15
2018-07-07T22:05:13.222Z,66.92
2018-07-07T22:07:43.822Z,67.11
2018-07-07T22:10:14.494Z,66.51
2018-07-07T22:12:45.091Z,66.42
2018-07-07T22:15:15.773Z,66.38
2018-07-07T22:17:46.250Z,66.15
2018-07-07T22:20:37.702Z,65.66
2018-07-07T22:23:08.466Z,66.17
2018-07-07T22:25:38.565Z,65.37
2018-07-07T22:28:09.335Z,65.99
2018-07-07T22:30:40.102Z,65.65
2018-07-07T22:33:15.713Z,65.15
2018-07-07T22:35:51.342Z,65.43
2018-07-07T22:38:26.827Z,65.75
2018-07-07T22:40:57.785Z,66.22
2018-07-07T22:43:28.769Z,65.77
2018-07-07T22:46:01.151Z,65.48
2018-07-07T22:48:31.260Z,65.82
2018-07-07T22:51:02.013Z,65.38
2018-07-07T22:53:32.922Z,65.63
2018-07-07T22:56:03.532Z,65.83
2018-07-07T22:58:34.354Z,66.23
2018-07-07T23:01:04.932Z,66.82
2018-07-07T23:03:35.265Z,66.39
2018-07-07T23:06:05.914Z,66.85
2018-07-07T23:08:36.702Z,66.90
2018-07-07T23:11:07.574Z,66.79
2018-07-07T23:13:37.776Z,67.16
2018-07-07T23:16:08.054Z,67.37
2018-07-07T23:18:38.941Z,66.75
2018-07-07T23:21:09.201Z,66.62
2018-07-07T23:23:39.941Z,67.97
2018-07-07T23:26:10.629Z,67.60
2018-07-07T23:28:41.782Z,68.13
2018-07-07T23:31:12.374Z,68.04
2018-07-07T23:33:43.018Z,68.02
2018-07-07T23:36:13.665Z,67.66
2018-07-07T23:38:44.901Z,68.14
2018-07-07T23:41:15.638Z,68.05
2018-07-07T23:43:46.576Z,68.13
2018-07-07T23:46:17.181Z,67.48
2018-07-07T23:48:48.115Z,68.22
2018-07-07T23:51:18.813Z,68.06
2018-07-07T23:53:49.722Z,68.76
2018-07-07T23:56:19.949Z,68.86
2018-07-07T23:58:50.021Z,68.39
